sensor_id;sensor_type;location;lat;lon;timestamp;P1;durP1;ratioP1;P2;durP2;ratioP2
21099;SDS011;10708;50.824;4.408;2022-12-18T00:02:49;29.53;;;9.70;;
21099;SDS011;10708;50.824;4.408;2022-12-18T00:07:53;29.40;;;13.73;;
21099;SDS011;10708;50.824;4.408;2022-12-18T00:12:55;30.90;;;13.87;;
21099;SDS011;10708;50.824;4.408;2022-12-18T00:17:58;28.60;;;12.07;;
21099;SDS011;10708;50.824;4.408;2022-12-18T00:23:01;26.57;;;13.43;;
21099;SDS011;10708;50.824;4.408;2022-12-18T00:28:04;28.33;;;13.43;;
21099;SDS011;10708;50.824;4.408;2022-12-18T00:33:06;30.60;;;13.87;;
21099;SDS011;10708;50.824;4.408;2022-12-18T00:38:10;28.17;;;13.37;;
21099;SDS011;10708;50.824;4.408;2022-12-18T00:43:13;26.50;;;12.33;;
21099;SDS011;10708;50.824;4.408;2022-12-18T00:48:16;22.40;;;10.97;;
21099;SDS011;10708;50.824;4.408;2022-12-18T00:53:19;27.30;;;11.63;;
21099;SDS011;10708;50.824;4.408;2022-12-18T00:58:22;26.47;;;11.10;;
21099;SDS011;10708;50.824;4.408;2022-12-18T01:03:24;27.53;;;10.73;;
21099;SDS011;10708;50.824;4.408;2022-12-18T01:08:28;23.60;;;10.23;;
21099;SDS011;10708;50.824;4.408;2022-12-18T01:13:30;20.33;;;10.37;;
21099;SDS011;10708;50.824;4.408;2022-12-18T01:18:33;19.67;;;7.90;;
21099;SDS011;10708;50.824;4.408;2022-12-18T01:23:36;20.00;;;9.33;;
21099;SDS011;10708;50.824;4.408;2022-12-18T01:28:39;20.00;;;8.53;;
21099;SDS011;10708;50.824;4.408;2022-12-18T01:33:42;16.43;;;8.67;;
21099;SDS011;10708;50.824;4.408;2022-12-18T01:38:46;15.23;;;7.80;;
21099;SDS011;10708;50.824;4.408;2022-12-18T01:43:51;16.07;;;8.20;;
21099;SDS011;10708;50.824;4.408;2022-12-18T01:48:56;16.40;;;8.83;;
21099;SDS011;10708;50.824;4.408;2022-12-18T01:54:01;16.37;;;8.33;;
21099;SDS011;10708;50.824;4.408;2022-12-18T01:59:05;11.33;;;6.13;;
21099;SDS011;10708;50.824;4.408;2022-12-18T02:04:19;27.07;;;8.53;;
21099;SDS011;10708;50.824;4.408;2022-12-18T02:09:24;17.63;;;9.53;;
21099;SDS011;10708;50.824;4.408;2022-12-18T02:14:34;19.40;;;7.77;;
21099;SDS011;10708;50.824;4.408;2022-12-18T02:19:44;15.83;;;8.83;;
21099;SDS011;10708;50.824;4.408;2022-12-18T02:25:04;9.60;;;4.93;;
21099;SDS011;10708;50.824;4.408;2022-12-18T02:30:18;17.13;;;7.53;;
21099;SDS011;10708;50.824;4.408;2022-12-18T02:35:22;13.63;;;5.87;;
21099;SDS011;10708;50.824;4.408;2022-12-18T02:40:26;18.03;;;7.33;;
21099;SDS011;10708;50.824;4.408;2022-12-18T02:45:31;17.93;;;8.57;;
21099;SDS011;10708;50.824;4.408;2022-12-18T02:50:34;18.03;;;8.07;;
21099;SDS011;10708;50.824;4.408;2022-12-18T02:55:44;15.20;;;7.17;;
21099;SDS011;10708;50.824;4.408;2022-12-18T03:00:57;17.13;;;7.83;;
21099;SDS011;10708;50.824;4.408;2022-12-18T03:06:04;15.07;;;8.03;;
21099;SDS011;10708;50.824;4.408;2022-12-18T03:11:11;10.63;;;5.77;;
21099;SDS011;10708;50.824;4.408;2022-12-18T03:16:17;10.83;;;6.07;;
21099;SDS011;10708;50.824;4.408;2022-12-18T03:21:26;16.13;;;7.97;;
21099;SDS011;10708;50.824;4.408;2022-12-18T03:26:33;15.90;;;5.90;;
21099;SDS011;10708;50.824;4.408;2022-12-18T03:31:40;13.93;;;6.27;;
21099;SDS011;10708;50.824;4.408;2022-12-18T03:36:49;14.37;;;7.57;;
21099;SDS011;10708;50.824;4.408;2022-12-18T03:41:52;11.83;;;5.83;;
21099;SDS011;10708;50.824;4.408;2022-12-18T03:47:09;15.20;;;6.47;;
21099;SDS011;10708;50.824;4.408;2022-12-18T03:52:17;12.07;;;5.27;;
21099;SDS011;10708;50.824;4.408;2022-12-18T03:57:24;7.20;;;3.70;;
21099;SDS011;10708;50.824;4.408;2022-12-18T04:02:31;8.80;;;4.87;;
21099;SDS011;10708;50.824;4.408;2022-12-18T04:07:36;15.87;;;7.10;;
21099;SDS011;10708;50.824;4.408;2022-12-18T04:12:40;15.83;;;6.93;;
21099;SDS011;10708;50.824;4.408;2022-12-18T04:17:46;19.13;;;7.20;;
21099;SDS011;10708;50.824;4.408;2022-12-18T04:22:49;15.30;;;7.17;;
21099;SDS011;10708;50.824;4.408;2022-12-18T04:27:52;14.70;;;7.10;;
21099;SDS011;10708;50.824;4.408;2022-12-18T04:32:55;18.33;;;7.00;;
21099;SDS011;10708;50.824;4.408;2022-12-18T04:37:57;14.30;;;5.63;;
21099;SDS011;10708;50.824;4.408;2022-12-18T04:43:00;11.63;;;5.70;;
21099;SDS011;10708;50.824;4.408;2022-12-18T04:48:04;15.03;;;5.93;;
21099;SDS011;10708;50.824;4.408;2022-12-18T04:53:06;16.23;;;6.73;;
21099;SDS011;10708;50.824;4.408;2022-12-18T04:58:08;15.83;;;7.27;;
21099;SDS011;10708;50.824;4.408;2022-12-18T05:03:12;12.33;;;5.27;;
21099;SDS011;10708;50.824;4.408;2022-12-18T05:08:14;14.50;;;6.43;;
21099;SDS011;10708;50.824;4.408;2022-12-18T05:13:16;10.83;;;5.77;;
21099;SDS011;10708;50.824;4.408;2022-12-18T05:18:20;13.73;;;5.57;;
21099;SDS011;10708;50.824;4.408;2022-12-18T05:23:23;13.37;;;5.77;;
21099;SDS011;10708;50.824;4.408;2022-12-18T05:28:26;17.50;;;5.80;;
21099;SDS011;10708;50.824;4.408;2022-12-18T05:33:32;11.73;;;4.57;;
21099;SDS011;10708;50.824;4.408;2022-12-18T05:38:36;6.93;;;3.73;;
21099;SDS011;10708;50.824;4.408;2022-12-18T05:43:40;10.00;;;5.03;;
21099;SDS011;10708;50.824;4.408;2022-12-18T05:48:44;8.53;;;4.60;;
21099;SDS011;10708;50.824;4.408;2022-12-18T05:53:47;5.93;;;3.13;;
21099;SDS011;10708;50.824;4.408;2022-12-18T05:58:51;11.30;;;4.80;;
21099;SDS011;10708;50.824;4.408;2022-12-18T06:03:56;10.67;;;5.13;;
21099;SDS011;10708;50.824;4.408;2022-12-18T06:08:58;10.87;;;5.00;;
21099;SDS011;10708;50.824;4.408;2022-12-18T06:14:01;15.37;;;4.93;;
21099;SDS011;10708;50.824;4.408;2022-12-18T06:19:06;10.93;;;4.67;;
21099;SDS011;10708;50.824;4.408;2022-12-18T06:24:09;8.93;;;4.73;;
21099;SDS011;10708;50.824;4.408;2022-12-18T06:29:11;11.03;;;4.70;;
21099;SDS011;10708;50.824;4.408;2022-12-18T06:34:15;9.10;;;4.17;;
21099;SDS011;10708;50.824;4.408;2022-12-18T06:39:17;13.20;;;4.17;;
21099;SDS011;10708;50.824;4.408;2022-12-18T06:44:19;8.77;;;4.60;;
21099;SDS011;10708;50.824;4.408;2022-12-18T06:49:23;6.70;;;3.93;;
21099;SDS011;10708;50.824;4.408;2022-12-18T06:54:26;5.37;;;2.67;;
21099;SDS011;10708;50.824;4.408;2022-12-18T06:59:28;10.00;;;4.43;;
21099;SDS011;10708;50.824;4.408;2022-12-18T07:04:32;11.03;;;4.50;;
21099;SDS011;10708;50.824;4.408;2022-12-18T07:09:34;9.37;;;4.13;;
21099;SDS011;10708;50.824;4.408;2022-12-18T07:14:37;7.50;;;3.77;;
21099;SDS011;10708;50.824;4.408;2022-12-18T07:19:40;10.53;;;3.90;;
21099;SDS011;10708;50.824;4.408;2022-12-18T07:24:43;8.40;;;3.47;;
21099;SDS011;10708;50.824;4.408;2022-12-18T07:29:45;2.83;;;2.23;;
21099;SDS011;10708;50.824;4.408;2022-12-18T07:34:49;6.13;;;3.17;;
21099;SDS011;10708;50.824;4.408;2022-12-18T07:39:51;6.90;;;3.73;;
21099;SDS011;10708;50.824;4.408;2022-12-18T07:44:53;7.47;;;2.83;;
21099;SDS011;10708;50.824;4.408;2022-12-18T07:49:57;8.67;;;4.83;;
21099;SDS011;10708;50.824;4.408;2022-12-18T07:54:59;4.37;;;2.90;;
21099;SDS011;10708;50.824;4.408;2022-12-18T08:00:02;7.93;;;3.73;;
21099;SDS011;10708;50.824;4.408;2022-12-18T08:05:06;9.87;;;4.83;;
21099;SDS011;10708;50.824;4.408;2022-12-18T08:10:09;8.33;;;4.13;;
21099;SDS011;10708;50.824;4.408;2022-12-18T08:15:11;7.20;;;3.73;;
21099;SDS011;10708;50.824;4.408;2022-12-18T08:20:15;9.63;;;5.10;;
21099;SDS011;10708;50.824;4.408;2022-12-18T08:25:18;7.93;;;3.70;;
21099;SDS011;10708;50.824;4.408;2022-12-18T08:30:21;9.27;;;4.50;;
21099;SDS011;10708;50.824;4.408;2022-12-18T08:35:24;8.93;;;4.07;;
21099;SDS011;10708;50.824;4.408;2022-12-18T08:40:27;7.97;;;4.47;;
21099;SDS011;10708;50.824;4.408;2022-12-18T08:45:29;7.00;;;4.37;;
21099;SDS011;10708;50.824;4.408;2022-12-18T08:50:33;5.43;;;3.10;;
21099;SDS011;10708;50.824;4.408;2022-12-18T08:55:35;10.10;;;5.03;;
21099;SDS011;10708;50.824;4.408;2022-12-18T09:00:38;11.83;;;5.37;;
21099;SDS011;10708;50.824;4.408;2022-12-18T09:05:41;9.77;;;4.80;;
21099;SDS011;10708;50.824;4.408;2022-12-18T09:10:44;9.27;;;4.80;;
21099;SDS011;10708;50.824;4.408;2022-12-18T09:15:50;11.93;;;5.50;;
21099;SDS011;10708;50.824;4.408;2022-12-18T09:20:54;10.43;;;4.90;;
21099;SDS011;10708;50.824;4.408;2022-12-18T09:25:58;12.37;;;6.03;;
21099;SDS011;10708;50.824;4.408;2022-12-18T09:31:03;12.50;;;6.10;;
21099;SDS011;10708;50.824;4.408;2022-12-18T09:36:10;12.67;;;5.80;;
21099;SDS011;10708;50.824;4.408;2022-12-18T09:41:27;16.50;;;6.63;;
21099;SDS011;10708;50.824;4.408;2022-12-18T09:46:43;21.60;;;7.77;;
21099;SDS011;10708;50.824;4.408;2022-12-18T09:51:50;11.07;;;4.87;;
21099;SDS011;10708;50.824;4.408;2022-12-18T09:56:56;13.83;;;6.87;;
21099;SDS011;10708;50.824;4.408;2022-12-18T10:01:58;12.87;;;6.00;;
21099;SDS011;10708;50.824;4.408;2022-12-18T10:07:03;13.23;;;6.90;;
21099;SDS011;10708;50.824;4.408;2022-12-18T10:12:12;12.30;;;6.07;;
21099;SDS011;10708;50.824;4.408;2022-12-18T10:17:22;14.43;;;7.60;;
21099;SDS011;10708;50.824;4.408;2022-12-18T10:22:38;13.53;;;6.33;;
21099;SDS011;10708;50.824;4.408;2022-12-18T10:27:50;15.67;;;8.43;;
21099;SDS011;10708;50.824;4.408;2022-12-18T10:32:59;16.83;;;7.77;;
21099;SDS011;10708;50.824;4.408;2022-12-18T10:38:05;12.03;;;6.43;;
21099;SDS011;10708;50.824;4.408;2022-12-18T10:43:10;17.20;;;8.37;;
21099;SDS011;10708;50.824;4.408;2022-12-18T10:48:18;17.77;;;8.60;;
21099;SDS011;10708;50.824;4.408;2022-12-18T10:53:23;14.60;;;6.70;;
21099;SDS011;10708;50.824;4.408;2022-12-18T10:58:29;15.97;;;7.67;;
21099;SDS011;10708;50.824;4.408;2022-12-18T11:03:33;15.80;;;7.60;;
21099;SDS011;10708;50.824;4.408;2022-12-18T11:08:39;14.83;;;7.83;;
21099;SDS011;10708;50.824;4.408;2022-12-18T11:13:47;13.53;;;7.90;;
21099;SDS011;10708;50.824;4.408;2022-12-18T11:19:09;15.17;;;7.50;;
21099;SDS011;10708;50.824;4.408;2022-12-18T11:24:24;14.33;;;8.17;;
21099;SDS011;10708;50.824;4.408;2022-12-18T11:29:34;16.47;;;8.07;;
21099;SDS011;10708;50.824;4.408;2022-12-18T11:34:38;12.63;;;7.67;;
21099;SDS011;10708;50.824;4.408;2022-12-18T11:39:46;14.40;;;7.90;;
21099;SDS011;10708;50.824;4.408;2022-12-18T11:44:55;15.20;;;8.40;;
21099;SDS011;10708;50.824;4.408;2022-12-18T11:50:02;17.00;;;7.90;;
21099;SDS011;10708;50.824;4.408;2022-12-18T11:55:14;15.23;;;8.10;;
21099;SDS011;10708;50.824;4.408;2022-12-18T12:00:22;13.80;;;7.43;;
21099;SDS011;10708;50.824;4.408;2022-12-18T12:05:27;14.87;;;7.13;;
21099;SDS011;10708;50.824;4.408;2022-12-18T12:10:42;17.00;;;7.50;;
21099;SDS011;10708;50.824;4.408;2022-12-18T12:15:56;12.80;;;6.67;;
21099;SDS011;10708;50.824;4.408;2022-12-18T12:21:09;16.90;;;6.97;;
21099;SDS011;10708;50.824;4.408;2022-12-18T12:26:23;17.53;;;7.63;;
21099;SDS011;10708;50.824;4.408;2022-12-18T12:31:35;12.23;;;6.33;;
21099;SDS011;10708;50.824;4.408;2022-12-18T12:36:52;15.23;;;7.10;;
21099;SDS011;10708;50.824;4.408;2022-12-18T12:42:11;15.23;;;8.17;;
21099;SDS011;10708;50.824;4.408;2022-12-18T12:47:36;13.90;;;6.93;;
21099;SDS011;10708;50.824;4.408;2022-12-18T12:52:43;17.53;;;8.53;;
21099;SDS011;10708;50.824;4.408;2022-12-18T12:57:51;18.73;;;8.90;;
21099;SDS011;10708;50.824;4.408;2022-12-18T13:03:01;22.17;;;10.20;;
21099;SDS011;10708;50.824;4.408;2022-12-18T13:08:11;15.67;;;8.13;;
21099;SDS011;10708;50.824;4.408;2022-12-18T13:13:27;15.57;;;8.07;;
21099;SDS011;10708;50.824;4.408;2022-12-18T13:18:50;18.43;;;9.17;;
21099;SDS011;10708;50.824;4.408;2022-12-18T13:23:54;15.23;;;8.17;;
21099;SDS011;10708;50.824;4.408;2022-12-18T13:28:59;18.30;;;9.17;;
21099;SDS011;10708;50.824;4.408;2022-12-18T13:34:09;19.03;;;8.40;;
21099;SDS011;10708;50.824;4.408;2022-12-18T13:39:23;16.00;;;8.67;;
21099;SDS011;10708;50.824;4.408;2022-12-18T13:44:31;23.53;;;10.30;;
21099;SDS011;10708;50.824;4.408;2022-12-18T13:49:36;21.57;;;10.40;;
21099;SDS011;10708;50.824;4.408;2022-12-18T13:54:40;18.97;;;9.73;;
21099;SDS011;10708;50.824;4.408;2022-12-18T13:59:45;20.08;;;11.48;;
21099;SDS011;10708;50.824;4.408;2022-12-18T14:04:48;22.20;;;10.87;;
21099;SDS011;10708;50.824;4.408;2022-12-18T14:09:51;20.37;;;10.37;;
21099;SDS011;10708;50.824;4.408;2022-12-18T14:14:58;23.43;;;11.17;;
21099;SDS011;10708;50.824;4.408;2022-12-18T14:20:02;22.23;;;10.67;;
21099;SDS011;10708;50.824;4.408;2022-12-18T14:25:10;22.40;;;10.80;;
21099;SDS011;10708;50.824;4.408;2022-12-18T14:30:24;23.97;;;11.23;;
21099;SDS011;10708;50.824;4.408;2022-12-18T14:35:31;21.57;;;10.37;;
21099;SDS011;10708;50.824;4.408;2022-12-18T14:40:36;23.73;;;11.37;;
21099;SDS011;10708;50.824;4.408;2022-12-18T14:45:40;25.60;;;11.83;;
21099;SDS011;10708;50.824;4.408;2022-12-18T14:50:44;79.07;;;24.97;;
21099;SDS011;10708;50.824;4.408;2022-12-18T14:55:55;23.93;;;11.00;;
21099;SDS011;10708;50.824;4.408;2022-12-18T15:00:59;30.35;;;17.80;;
21099;SDS011;10708;50.824;4.408;2022-12-18T15:06:15;26.23;;;13.37;;
21099;SDS011;10708;50.824;4.408;2022-12-18T15:17:03;25.20;;;11.37;;
21099;SDS011;10708;50.824;4.408;2022-12-18T15:27:44;24.60;;;11.00;;
21099;SDS011;10708;50.824;4.408;2022-12-18T15:38:37;25.20;;;12.23;;
21099;SDS011;10708;50.824;4.408;2022-12-18T15:49:25;30.07;;;11.70;;
21099;SDS011;10708;50.824;4.408;2022-12-18T15:54:27;27.30;;;12.13;;
21099;SDS011;10708;50.824;4.408;2022-12-18T15:59:51;25.20;;;10.87;;
21099;SDS011;10708;50.824;4.408;2022-12-18T16:04:58;24.83;;;11.73;;
21099;SDS011;10708;50.824;4.408;2022-12-18T16:15:33;23.57;;;10.50;;
21099;SDS011;10708;50.824;4.408;2022-12-18T16:20:37;21.27;;;10.13;;
21099;SDS011;10708;50.824;4.408;2022-12-18T16:25:40;19.77;;;9.57;;
21099;SDS011;10708;50.824;4.408;2022-12-18T16:30:42;22.00;;;10.87;;
21099;SDS011;10708;50.824;4.408;2022-12-18T16:35:52;26.00;;;10.63;;
21099;SDS011;10708;50.824;4.408;2022-12-18T16:40:54;21.17;;;9.30;;
21099;SDS011;10708;50.824;4.408;2022-12-18T16:46:14;23.33;;;10.60;;
21099;SDS011;10708;50.824;4.408;2022-12-18T16:51:27;20.90;;;9.77;;
21099;SDS011;10708;50.824;4.408;2022-12-18T16:56:30;17.57;;;8.53;;
21099;SDS011;10708;50.824;4.408;2022-12-18T17:01:33;22.93;;;9.80;;
21099;SDS011;10708;50.824;4.408;2022-12-18T17:06:38;21.27;;;10.57;;
21099;SDS011;10708;50.824;4.408;2022-12-18T17:11:42;25.70;;;10.50;;
21099;SDS011;10708;50.824;4.408;2022-12-18T17:16:45;23.67;;;9.67;;
21099;SDS011;10708;50.824;4.408;2022-12-18T17:21:52;19.33;;;9.50;;
21099;SDS011;10708;50.824;4.408;2022-12-18T17:27:00;25.70;;;11.33;;
21099;SDS011;10708;50.824;4.408;2022-12-18T17:32:05;20.63;;;9.57;;
21099;SDS011;10708;50.824;4.408;2022-12-18T17:37:11;23.53;;;10.33;;
21099;SDS011;10708;50.824;4.408;2022-12-18T17:42:14;26.53;;;11.67;;
21099;SDS011;10708;50.824;4.408;2022-12-18T17:47:16;25.20;;;10.40;;
21099;SDS011;10708;50.824;4.408;2022-12-18T17:52:21;25.63;;;11.20;;
21099;SDS011;10708;50.824;4.408;2022-12-18T17:57:23;22.27;;;10.43;;
21099;SDS011;10708;50.824;4.408;2022-12-18T18:02:25;26.67;;;11.80;;
21099;SDS011;10708;50.824;4.408;2022-12-18T18:07:29;26.63;;;11.90;;
21099;SDS011;10708;50.824;4.408;2022-12-18T18:12:31;26.87;;;11.03;;
21099;SDS011;10708;50.824;4.408;2022-12-18T18:17:52;23.43;;;10.70;;
21099;SDS011;10708;50.824;4.408;2022-12-18T18:22:55;23.40;;;10.67;;
21099;SDS011;10708;50.824;4.408;2022-12-18T18:27:58;23.77;;;9.70;;
21099;SDS011;10708;50.824;4.408;2022-12-18T18:33:00;23.47;;;11.30;;
21099;SDS011;10708;50.824;4.408;2022-12-18T18:38:04;26.63;;;12.40;;
21099;SDS011;10708;50.824;4.408;2022-12-18T18:43:06;25.97;;;11.47;;
21099;SDS011;10708;50.824;4.408;2022-12-18T18:48:09;30.00;;;12.70;;
21099;SDS011;10708;50.824;4.408;2022-12-18T18:53:12;28.37;;;12.23;;
21099;SDS011;10708;50.824;4.408;2022-12-18T18:58:15;30.13;;;12.00;;
21099;SDS011;10708;50.824;4.408;2022-12-18T19:03:17;25.93;;;10.90;;
21099;SDS011;10708;50.824;4.408;2022-12-18T19:08:22;27.50;;;11.90;;
21099;SDS011;10708;50.824;4.408;2022-12-18T19:18:40;26.07;;;11.87;;
21099;SDS011;10708;50.824;4.408;2022-12-18T19:23:46;32.88;;;16.33;;
21099;SDS011;10708;50.824;4.408;2022-12-18T19:28:49;30.50;;;12.60;;
21099;SDS011;10708;50.824;4.408;2022-12-18T19:33:52;31.40;;;13.67;;
21099;SDS011;10708;50.824;4.408;2022-12-18T19:38:58;28.43;;;12.40;;
21099;SDS011;10708;50.824;4.408;2022-12-18T19:44:01;28.57;;;12.57;;
21099;SDS011;10708;50.824;4.408;2022-12-18T19:49:03;31.37;;;13.50;;
21099;SDS011;10708;50.824;4.408;2022-12-18T19:54:07;40.80;;;16.77;;
21099;SDS011;10708;50.824;4.408;2022-12-18T19:59:12;29.67;;;13.07;;
21099;SDS011;10708;50.824;4.408;2022-12-18T20:04:14;28.73;;;12.07;;
21099;SDS011;10708;50.824;4.408;2022-12-18T20:09:18;26.93;;;11.60;;
21099;SDS011;10708;50.824;4.408;2022-12-18T20:14:21;29.00;;;12.90;;
21099;SDS011;10708;50.824;4.408;2022-12-18T20:19:25;29.90;;;13.07;;
21099;SDS011;10708;50.824;4.408;2022-12-18T20:24:29;29.03;;;12.00;;
21099;SDS011;10708;50.824;4.408;2022-12-18T20:29:31;32.47;;;12.53;;
21099;SDS011;10708;50.824;4.408;2022-12-18T20:34:33;30.57;;;13.17;;
21099;SDS011;10708;50.824;4.408;2022-12-18T20:39:37;29.23;;;13.07;;
21099;SDS011;10708;50.824;4.408;2022-12-18T20:44:40;28.43;;;12.33;;
21099;SDS011;10708;50.824;4.408;2022-12-18T20:49:42;30.63;;;13.07;;
21099;SDS011;10708;50.824;4.408;2022-12-18T20:54:46;30.77;;;13.70;;
21099;SDS011;10708;50.824;4.408;2022-12-18T20:59:48;27.50;;;12.03;;
21099;SDS011;10708;50.824;4.408;2022-12-18T21:04:51;24.27;;;11.30;;
21099;SDS011;10708;50.824;4.408;2022-12-18T21:09:55;26.60;;;12.27;;
21099;SDS011;10708;50.824;4.408;2022-12-18T21:14:57;29.90;;;12.70;;
21099;SDS011;10708;50.824;4.408;2022-12-18T21:20:00;28.33;;;12.40;;
21099;SDS011;10708;50.824;4.408;2022-12-18T21:25:04;30.47;;;13.50;;
21099;SDS011;10708;50.824;4.408;2022-12-18T21:30:07;22.37;;;9.70;;
21099;SDS011;10708;50.824;4.408;2022-12-18T21:35:10;26.60;;;12.70;;
21099;SDS011;10708;50.824;4.408;2022-12-18T21:40:14;28.40;;;11.43;;
21099;SDS011;10708;50.824;4.408;2022-12-18T21:45:16;30.43;;;13.13;;
21099;SDS011;10708;50.824;4.408;2022-12-18T21:50:19;27.13;;;12.07;;
21099;SDS011;10708;50.824;4.408;2022-12-18T21:55:23;29.23;;;12.60;;
21099;SDS011;10708;50.824;4.408;2022-12-18T22:00:25;30.37;;;13.23;;
21099;SDS011;10708;50.824;4.408;2022-12-18T22:05:27;32.67;;;12.87;;
21099;SDS011;10708;50.824;4.408;2022-12-18T22:10:31;25.67;;;12.33;;
21099;SDS011;10708;50.824;4.408;2022-12-18T22:15:34;28.00;;;12.57;;
21099;SDS011;10708;50.824;4.408;2022-12-18T22:20:36;27.60;;;11.23;;
21099;SDS011;10708;50.824;4.408;2022-12-18T22:25:40;24.87;;;11.40;;
21099;SDS011;10708;50.824;4.408;2022-12-18T22:30:42;29.07;;;12.97;;
21099;SDS011;10708;50.824;4.408;2022-12-18T22:35:45;32.17;;;11.90;;
21099;SDS011;10708;50.824;4.408;2022-12-18T22:40:48;27.73;;;12.80;;
21099;SDS011;10708;50.824;4.408;2022-12-18T22:45:51;26.30;;;11.70;;
21099;SDS011;10708;50.824;4.408;2022-12-18T22:50:53;33.27;;;13.47;;
21099;SDS011;10708;50.824;4.408;2022-12-18T22:56:00;33.13;;;12.70;;
21099;SDS011;10708;50.824;4.408;2022-12-18T23:01:02;28.10;;;12.33;;
21099;SDS011;10708;50.824;4.408;2022-12-18T23:06:07;28.60;;;11.80;;
21099;SDS011;10708;50.824;4.408;2022-12-18T23:11:12;26.33;;;11.93;;
21099;SDS011;10708;50.824;4.408;2022-12-18T23:16:16;25.27;;;11.87;;
21099;SDS011;10708;50.824;4.408;2022-12-18T23:21:21;27.27;;;11.30;;
21099;SDS011;10708;50.824;4.408;2022-12-18T23:26:25;22.20;;;10.53;;
21099;SDS011;10708;50.824;4.408;2022-12-18T23:31:29;24.00;;;11.70;;
21099;SDS011;10708;50.824;4.408;2022-12-18T23:36:32;23.70;;;11.07;;
21099;SDS011;10708;50.824;4.408;2022-12-18T23:41:37;24.17;;;10.93;;
21099;SDS011;10708;50.824;4.408;2022-12-18T23:46:39;25.87;;;12.27;;
21099;SDS011;10708;50.824;4.408;2022-12-18T23:51:41;25.90;;;11.60;;
21099;SDS011;10708;50.824;4.408;2022-12-18T23:56:45;26.23;;;12.20;;
